sensor_id;sensor_type;location;lat;lon;timestamp;temperature;humidity
24560;DHT22;12727;49.934;8.656;2022-09-13T00:00:43;15.30;99.90
24560;DHT22;12727;49.934;8.656;2022-09-13T00:03:11;15.00;99.90
24560;DHT22;12727;49.934;8.656;2022-09-13T00:05:37;14.80;99.90
24560;DHT22;12727;49.934;8.656;2022-09-13T00:08:04;14.70;99.90
24560;DHT22;12727;49.934;8.656;2022-09-13T00:10:30;14.70;99.90
24560;DHT22;12727;49.934;8.656;2022-09-13T00:12:59;14.60;99.90
24560;DHT22;12727;49.934;8.656;2022-09-13T00:15:25;14.40;99.90
24560;DHT22;12727;49.934;8.656;2022-09-13T00:17:50;14.20;99.90
24560;DHT22;12727;49.934;8.656;2022-09-13T00:20:16;14.30;99.90
24560;DHT22;12727;49.934;8.656;2022-09-13T00:22:42;14.40;99.90
24560;DHT22;12727;49.934;8.656;2022-09-13T00:25:07;14.20;99.90
24560;DHT22;12727;49.934;8.656;2022-09-13T00:27:34;14.10;99.90
24560;DHT22;12727;49.934;8.656;2022-09-13T00:30:00;14.10;99.90
24560;DHT22;12727;49.934;8.656;2022-09-13T00:32:26;14.30;99.90
24560;DHT22;12727;49.934;8.656;2022-09-13T00:34:51;14.20;99.90
24560;DHT22;12727;49.934;8.656;2022-09-13T00:37:17;14.00;99.90
24560;DHT22;12727;49.934;8.656;2022-09-13T00:39:43;14.10;99.90
24560;DHT22;12727;49.934;8.656;2022-09-13T00:42:11;14.00;99.90
24560;DHT22;12727;49.934;8.656;2022-09-13T00:47:35;13.80;99.90
24560;DHT22;12727;49.934;8.656;2022-09-13T00:50:29;13.80;99.90
24560;DHT22;12727;49.934;8.656;2022-09-13T00:55:33;13.80;99.90
24560;DHT22;12727;49.934;8.656;2022-09-13T00:58:05;13.70;99.90
24560;DHT22;12727;49.934;8.656;2022-09-13T01:00:33;13.60;99.90
24560;DHT22;12727;49.934;8.656;2022-09-13T01:03:06;13.80;99.90
24560;DHT22;12727;49.934;8.656;2022-09-13T01:05:36;13.80;99.90
24560;DHT22;12727;49.934;8.656;2022-09-13T01:08:03;13.70;99.90
24560;DHT22;12727;49.934;8.656;2022-09-13T01:10:44;13.60;99.90
24560;DHT22;12727;49.934;8.656;2022-09-13T01:13:17;13.70;99.90
24560;DHT22;12727;49.934;8.656;2022-09-13T01:15:44;13.60;99.90
24560;DHT22;12727;49.934;8.656;2022-09-13T01:18:10;13.40;99.90
24560;DHT22;12727;49.934;8.656;2022-09-13T01:21:27;13.30;99.90
24560;DHT22;12727;49.934;8.656;2022-09-13T01:30:03;13.60;99.90
24560;DHT22;12727;49.934;8.656;2022-09-13T01:44:02;13.90;99.90
24560;DHT22;12727;49.934;8.656;2022-09-13T01:55:02;13.00;99.90
24560;DHT22;12727;49.934;8.656;2022-09-13T02:00:12;13.00;99.90
24560;DHT22;12727;49.934;8.656;2022-09-13T02:03:17;12.90;99.90
24560;DHT22;12727;49.934;8.656;2022-09-13T02:06:04;13.30;99.90
24560;DHT22;12727;49.934;8.656;2022-09-13T02:08:39;13.30;99.90
24560;DHT22;12727;49.934;8.656;2022-09-13T02:11:09;13.10;99.90
24560;DHT22;12727;49.934;8.656;2022-09-13T02:13:54;13.10;99.90
24560;DHT22;12727;49.934;8.656;2022-09-13T02:16:54;13.30;99.90
24560;DHT22;12727;49.934;8.656;2022-09-13T02:19:39;13.40;99.90
24560;DHT22;12727;49.934;8.656;2022-09-13T02:22:07;13.30;99.90
24560;DHT22;12727;49.934;8.656;2022-09-13T02:24:36;13.20;99.90
24560;DHT22;12727;49.934;8.656;2022-09-13T02:27:08;13.30;99.90
24560;DHT22;12727;49.934;8.656;2022-09-13T02:29:37;13.50;99.90
24560;DHT22;12727;49.934;8.656;2022-09-13T02:32:14;13.60;99.90
24560;DHT22;12727;49.934;8.656;2022-09-13T02:34:45;13.60;99.90
24560;DHT22;12727;49.934;8.656;2022-09-13T02:37:12;13.60;99.90
24560;DHT22;12727;49.934;8.656;2022-09-13T02:39:44;13.40;99.90
24560;DHT22;12727;49.934;8.656;2022-09-13T02:42:42;13.40;99.90
24560;DHT22;12727;49.934;8.656;2022-09-13T02:45:09;13.50;99.90
24560;DHT22;12727;49.934;8.656;2022-09-13T02:47:56;13.50;99.90
24560;DHT22;12727;49.934;8.656;2022-09-13T02:58:20;13.30;99.90
24560;DHT22;12727;49.934;8.656;2022-09-13T03:00:47;13.30;99.90
24560;DHT22;12727;49.934;8.656;2022-09-13T03:03:14;13.00;99.90
24560;DHT22;12727;49.934;8.656;2022-09-13T03:05:41;12.80;99.90
24560;DHT22;12727;49.934;8.656;2022-09-13T03:08:09;12.80;99.90
24560;DHT22;12727;49.934;8.656;2022-09-13T03:21:48;12.80;99.90
24560;DHT22;12727;49.934;8.656;2022-09-13T03:40:55;12.70;99.90
24560;DHT22;12727;49.934;8.656;2022-09-13T03:43:36;12.90;99.90
24560;DHT22;12727;49.934;8.656;2022-09-13T03:46:05;13.00;99.90
24560;DHT22;12727;49.934;8.656;2022-09-13T03:48:35;13.00;99.90
24560;DHT22;12727;49.934;8.656;2022-09-13T03:51:03;13.00;99.90
24560;DHT22;12727;49.934;8.656;2022-09-13T03:53:30;13.10;99.90
24560;DHT22;12727;49.934;8.656;2022-09-13T03:55:56;13.20;99.90
24560;DHT22;12727;49.934;8.656;2022-09-13T03:58:24;13.30;99.90
24560;DHT22;12727;49.934;8.656;2022-09-13T04:00:50;13.40;99.90
24560;DHT22;12727;49.934;8.656;2022-09-13T04:03:19;13.40;99.90
24560;DHT22;12727;49.934;8.656;2022-09-13T04:05:45;13.40;99.90
24560;DHT22;12727;49.934;8.656;2022-09-13T04:08:11;13.20;99.90
24560;DHT22;12727;49.934;8.656;2022-09-13T04:10:37;13.10;99.90
24560;DHT22;12727;49.934;8.656;2022-09-13T04:13:03;13.30;99.90
24560;DHT22;12727;49.934;8.656;2022-09-13T04:15:30;13.50;99.90
24560;DHT22;12727;49.934;8.656;2022-09-13T04:17:56;13.50;99.90
24560;DHT22;12727;49.934;8.656;2022-09-13T04:20:21;13.40;99.90
24560;DHT22;12727;49.934;8.656;2022-09-13T04:22:54;13.40;99.90
24560;DHT22;12727;49.934;8.656;2022-09-13T04:25:20;13.60;99.90
24560;DHT22;12727;49.934;8.656;2022-09-13T04:27:47;13.60;99.90
24560;DHT22;12727;49.934;8.656;2022-09-13T04:30:12;13.60;99.90
24560;DHT22;12727;49.934;8.656;2022-09-13T04:32:38;13.40;99.90
24560;DHT22;12727;49.934;8.656;2022-09-13T04:35:04;13.20;99.90
24560;DHT22;12727;49.934;8.656;2022-09-13T04:37:33;13.10;99.90
24560;DHT22;12727;49.934;8.656;2022-09-13T04:39:59;13.40;99.90
24560;DHT22;12727;49.934;8.656;2022-09-13T04:42:24;13.60;99.90
24560;DHT22;12727;49.934;8.656;2022-09-13T04:44:50;13.80;99.90
24560;DHT22;12727;49.934;8.656;2022-09-13T04:47:15;13.80;99.90
24560;DHT22;12727;49.934;8.656;2022-09-13T04:49:41;14.00;99.90
24560;DHT22;12727;49.934;8.656;2022-09-13T04:52:06;14.00;99.90
24560;DHT22;12727;49.934;8.656;2022-09-13T04:54:32;14.10;99.90
24560;DHT22;12727;49.934;8.656;2022-09-13T04:56:58;13.80;99.90
24560;DHT22;12727;49.934;8.656;2022-09-13T04:59:24;13.60;99.90
24560;DHT22;12727;49.934;8.656;2022-09-13T05:01:50;13.60;99.90
24560;DHT22;12727;49.934;8.656;2022-09-13T05:04:15;13.50;99.90
24560;DHT22;12727;49.934;8.656;2022-09-13T05:06:41;13.60;99.90
24560;DHT22;12727;49.934;8.656;2022-09-13T05:09:09;13.70;99.90
24560;DHT22;12727;49.934;8.656;2022-09-13T05:11:36;13.70;99.90
24560;DHT22;12727;49.934;8.656;2022-09-13T05:14:01;13.60;99.90
24560;DHT22;12727;49.934;8.656;2022-09-13T05:16:29;13.70;99.90
24560;DHT22;12727;49.934;8.656;2022-09-13T05:18:55;13.90;99.90
24560;DHT22;12727;49.934;8.656;2022-09-13T05:21:21;13.90;99.90
24560;DHT22;12727;49.934;8.656;2022-09-13T05:23:49;14.10;99.90
24560;DHT22;12727;49.934;8.656;2022-09-13T05:26:15;14.20;99.90
24560;DHT22;12727;49.934;8.656;2022-09-13T05:28:40;14.30;99.90
24560;DHT22;12727;49.934;8.656;2022-09-13T05:31:10;14.40;99.90
24560;DHT22;12727;49.934;8.656;2022-09-13T05:33:37;14.40;99.90
24560;DHT22;12727;49.934;8.656;2022-09-13T05:36:04;14.30;99.90
24560;DHT22;12727;49.934;8.656;2022-09-13T05:38:30;14.10;99.90
24560;DHT22;12727;49.934;8.656;2022-09-13T05:40:59;14.00;99.90
24560;DHT22;12727;49.934;8.656;2022-09-13T05:43:26;13.90;99.90
24560;DHT22;12727;49.934;8.656;2022-09-13T05:46:00;13.80;99.90
24560;DHT22;12727;49.934;8.656;2022-09-13T05:48:26;13.70;99.90
24560;DHT22;12727;49.934;8.656;2022-09-13T05:50:51;13.70;99.90
24560;DHT22;12727;49.934;8.656;2022-09-13T05:53:17;13.70;99.90
24560;DHT22;12727;49.934;8.656;2022-09-13T05:55:42;13.80;99.90
24560;DHT22;12727;49.934;8.656;2022-09-13T05:58:08;14.20;99.90
24560;DHT22;12727;49.934;8.656;2022-09-13T06:00:33;14.50;99.90
24560;DHT22;12727;49.934;8.656;2022-09-13T06:02:59;14.80;99.90
24560;DHT22;12727;49.934;8.656;2022-09-13T06:05:25;14.90;99.90
24560;DHT22;12727;49.934;8.656;2022-09-13T06:07:50;14.90;99.90
24560;DHT22;12727;49.934;8.656;2022-09-13T06:10:16;14.90;99.90
24560;DHT22;12727;49.934;8.656;2022-09-13T06:12:41;15.00;99.90
24560;DHT22;12727;49.934;8.656;2022-09-13T06:15:08;15.00;99.90
24560;DHT22;12727;49.934;8.656;2022-09-13T06:17:33;15.10;99.90
24560;DHT22;12727;49.934;8.656;2022-09-13T06:19:59;15.00;99.90
24560;DHT22;12727;49.934;8.656;2022-09-13T06:22:24;14.90;99.90
24560;DHT22;12727;49.934;8.656;2022-09-13T06:24:57;14.90;99.90
24560;DHT22;12727;49.934;8.656;2022-09-13T06:27:23;14.80;99.90
24560;DHT22;12727;49.934;8.656;2022-09-13T06:29:49;14.80;99.90
24560;DHT22;12727;49.934;8.656;2022-09-13T06:32:14;14.70;99.90
24560;DHT22;12727;49.934;8.656;2022-09-13T06:34:40;14.50;99.90
24560;DHT22;12727;49.934;8.656;2022-09-13T06:37:05;14.60;99.90
24560;DHT22;12727;49.934;8.656;2022-09-13T06:39:31;14.80;99.90
24560;DHT22;12727;49.934;8.656;2022-09-13T06:41:58;14.90;99.90
24560;DHT22;12727;49.934;8.656;2022-09-13T06:44:24;15.00;99.90
24560;DHT22;12727;49.934;8.656;2022-09-13T06:46:50;15.30;99.90
24560;DHT22;12727;49.934;8.656;2022-09-13T06:49:15;15.30;99.90
24560;DHT22;12727;49.934;8.656;2022-09-13T06:51:41;15.20;99.90
24560;DHT22;12727;49.934;8.656;2022-09-13T06:54:07;15.10;99.90
24560;DHT22;12727;49.934;8.656;2022-09-13T06:56:34;15.10;99.90
24560;DHT22;12727;49.934;8.656;2022-09-13T06:59:03;15.30;99.90
24560;DHT22;12727;49.934;8.656;2022-09-13T07:01:35;15.50;99.90
24560;DHT22;12727;49.934;8.656;2022-09-13T07:06:30;15.40;99.90
24560;DHT22;12727;49.934;8.656;2022-09-13T07:08:57;15.50;99.90
24560;DHT22;12727;49.934;8.656;2022-09-13T07:11:25;15.50;99.90
24560;DHT22;12727;49.934;8.656;2022-09-13T07:13:52;15.50;99.90
24560;DHT22;12727;49.934;8.656;2022-09-13T07:16:20;15.40;99.90
24560;DHT22;12727;49.934;8.656;2022-09-13T07:18:53;15.40;99.90
24560;DHT22;12727;49.934;8.656;2022-09-13T07:21:20;15.40;99.90
24560;DHT22;12727;49.934;8.656;2022-09-13T07:23:46;15.40;99.90
24560;DHT22;12727;49.934;8.656;2022-09-13T07:26:12;15.60;99.90
24560;DHT22;12727;49.934;8.656;2022-09-13T07:28:42;15.60;99.90
24560;DHT22;12727;49.934;8.656;2022-09-13T07:31:20;15.70;99.90
24560;DHT22;12727;49.934;8.656;2022-09-13T07:33:47;15.80;99.90
24560;DHT22;12727;49.934;8.656;2022-09-13T07:36:13;15.80;99.90
24560;DHT22;12727;49.934;8.656;2022-09-13T07:38:41;15.90;99.90
24560;DHT22;12727;49.934;8.656;2022-09-13T07:41:11;15.90;99.90
24560;DHT22;12727;49.934;8.656;2022-09-13T07:43:37;15.90;99.90
24560;DHT22;12727;49.934;8.656;2022-09-13T07:46:08;15.90;99.90
24560;DHT22;12727;49.934;8.656;2022-09-13T07:48:36;15.90;99.90
24560;DHT22;12727;49.934;8.656;2022-09-13T07:51:13;15.90;99.90
24560;DHT22;12727;49.934;8.656;2022-09-13T07:53:40;15.90;99.90
24560;DHT22;12727;49.934;8.656;2022-09-13T07:56:08;16.00;99.90
24560;DHT22;12727;49.934;8.656;2022-09-13T07:58:36;16.00;99.90
24560;DHT22;12727;49.934;8.656;2022-09-13T08:01:09;16.10;99.90
24560;DHT22;12727;49.934;8.656;2022-09-13T08:03:36;16.10;99.90
24560;DHT22;12727;49.934;8.656;2022-09-13T08:06:02;16.10;99.90
24560;DHT22;12727;49.934;8.656;2022-09-13T08:08:29;16.10;99.90
24560;DHT22;12727;49.934;8.656;2022-09-13T08:10:55;16.20;99.90
24560;DHT22;12727;49.934;8.656;2022-09-13T08:13:22;16.20;99.90
24560;DHT22;12727;49.934;8.656;2022-09-13T08:15:47;16.30;99.90
24560;DHT22;12727;49.934;8.656;2022-09-13T08:18:14;16.40;99.90
24560;DHT22;12727;49.934;8.656;2022-09-13T08:20:40;16.50;99.90
24560;DHT22;12727;49.934;8.656;2022-09-13T08:23:07;16.70;99.90
24560;DHT22;12727;49.934;8.656;2022-09-13T08:25:35;16.90;99.90
24560;DHT22;12727;49.934;8.656;2022-09-13T08:28:15;17.00;99.90
24560;DHT22;12727;49.934;8.656;2022-09-13T08:30:41;17.40;99.90
24560;DHT22;12727;49.934;8.656;2022-09-13T08:33:09;17.50;99.90
24560;DHT22;12727;49.934;8.656;2022-09-13T08:35:35;17.70;99.90
24560;DHT22;12727;49.934;8.656;2022-09-13T08:38:03;17.80;99.90
24560;DHT22;12727;49.934;8.656;2022-09-13T08:40:47;17.80;99.90
24560;DHT22;12727;49.934;8.656;2022-09-13T08:46:18;17.80;99.90
24560;DHT22;12727;49.934;8.656;2022-09-13T08:48:46;17.80;99.90
24560;DHT22;12727;49.934;8.656;2022-09-13T08:51:30;18.10;99.90
24560;DHT22;12727;49.934;8.656;2022-09-13T08:53:57;18.40;99.90
24560;DHT22;12727;49.934;8.656;2022-09-13T09:00:39;18.50;99.90
24560;DHT22;12727;49.934;8.656;2022-09-13T09:05:23;18.60;99.90
24560;DHT22;12727;49.934;8.656;2022-09-13T09:07:58;18.40;99.90
24560;DHT22;12727;49.934;8.656;2022-09-13T09:10:47;18.30;99.90
24560;DHT22;12727;49.934;8.656;2022-09-13T09:13:29;18.20;99.90
24560;DHT22;12727;49.934;8.656;2022-09-13T09:19:27;18.10;99.90
24560;DHT22;12727;49.934;8.656;2022-09-13T09:21:55;17.90;99.90
24560;DHT22;12727;49.934;8.656;2022-09-13T09:24:23;17.80;99.90
24560;DHT22;12727;49.934;8.656;2022-09-13T09:26:51;17.70;99.90
24560;DHT22;12727;49.934;8.656;2022-09-13T09:29:21;17.60;99.90
24560;DHT22;12727;49.934;8.656;2022-09-13T09:32:13;17.50;99.90
24560;DHT22;12727;49.934;8.656;2022-09-13T09:35:07;17.50;99.90
24560;DHT22;12727;49.934;8.656;2022-09-13T09:37:37;17.70;99.90
24560;DHT22;12727;49.934;8.656;2022-09-13T09:40:05;17.80;99.90
24560;DHT22;12727;49.934;8.656;2022-09-13T09:42:41;17.90;99.90
24560;DHT22;12727;49.934;8.656;2022-09-13T09:47:49;18.10;99.90
24560;DHT22;12727;49.934;8.656;2022-09-13T09:50:22;18.20;99.90
24560;DHT22;12727;49.934;8.656;2022-09-13T09:53:07;18.20;99.90
24560;DHT22;12727;49.934;8.656;2022-09-13T09:55:41;18.30;99.90
24560;DHT22;12727;49.934;8.656;2022-09-13T09:58:10;18.20;99.90
24560;DHT22;12727;49.934;8.656;2022-09-13T10:00:54;18.00;99.90
24560;DHT22;12727;49.934;8.656;2022-09-13T10:03:24;17.80;99.90
24560;DHT22;12727;49.934;8.656;2022-09-13T10:05:50;17.70;99.90
24560;DHT22;12727;49.934;8.656;2022-09-13T10:08:28;17.60;99.90
24560;DHT22;12727;49.934;8.656;2022-09-13T10:10:56;17.70;99.90
24560;DHT22;12727;49.934;8.656;2022-09-13T10:13:24;17.70;99.90
24560;DHT22;12727;49.934;8.656;2022-09-13T10:15:53;17.70;99.90
24560;DHT22;12727;49.934;8.656;2022-09-13T10:18:21;17.70;99.90
24560;DHT22;12727;49.934;8.656;2022-09-13T10:21:06;17.70;99.90
24560;DHT22;12727;49.934;8.656;2022-09-13T10:23:34;17.70;99.90
24560;DHT22;12727;49.934;8.656;2022-09-13T10:26:06;17.70;99.90
24560;DHT22;12727;49.934;8.656;2022-09-13T10:29:04;17.80;99.90
24560;DHT22;12727;49.934;8.656;2022-09-13T10:31:42;17.90;99.90
24560;DHT22;12727;49.934;8.656;2022-09-13T10:34:16;18.00;99.90
24560;DHT22;12727;49.934;8.656;2022-09-13T10:36:57;17.90;99.90
24560;DHT22;12727;49.934;8.656;2022-09-13T10:39:24;18.00;99.90
24560;DHT22;12727;49.934;8.656;2022-09-13T10:41:55;18.00;99.90
24560;DHT22;12727;49.934;8.656;2022-09-13T10:47:11;18.00;99.90
24560;DHT22;12727;49.934;8.656;2022-09-13T10:52:35;18.10;99.90
24560;DHT22;12727;49.934;8.656;2022-09-13T10:57:48;18.30;99.90
24560;DHT22;12727;49.934;8.656;2022-09-13T11:00:17;18.30;99.90
24560;DHT22;12727;49.934;8.656;2022-09-13T11:05:44;18.50;99.90
24560;DHT22;12727;49.934;8.656;2022-09-13T11:16:39;19.00;99.90
24560;DHT22;12727;49.934;8.656;2022-09-13T11:19:37;19.00;99.90
24560;DHT22;12727;49.934;8.656;2022-09-13T11:24:56;19.00;99.90
24560;DHT22;12727;49.934;8.656;2022-09-13T11:30:17;19.00;99.90
24560;DHT22;12727;49.934;8.656;2022-09-13T11:51:49;19.40;99.90
24560;DHT22;12727;49.934;8.656;2022-09-13T11:57:19;19.30;99.90
24560;DHT22;12727;49.934;8.656;2022-09-13T11:59:54;19.40;99.90
24560;DHT22;12727;49.934;8.656;2022-09-13T12:02:28;19.40;99.90
24560;DHT22;12727;49.934;8.656;2022-09-13T12:05:08;19.40;99.90
24560;DHT22;12727;49.934;8.656;2022-09-13T12:07:48;19.30;99.90
24560;DHT22;12727;49.934;8.656;2022-09-13T12:12:47;19.40;99.90
24560;DHT22;12727;49.934;8.656;2022-09-13T12:15:35;19.50;99.90
24560;DHT22;12727;49.934;8.656;2022-09-13T12:18:15;19.60;99.90
24560;DHT22;12727;49.934;8.656;2022-09-13T12:24:17;19.90;99.90
24560;DHT22;12727;49.934;8.656;2022-09-13T12:26:57;19.90;99.90
24560;DHT22;12727;49.934;8.656;2022-09-13T12:32:09;20.00;99.90
24560;DHT22;12727;49.934;8.656;2022-09-13T12:37:31;19.80;99.90
24560;DHT22;12727;49.934;8.656;2022-09-13T12:43:06;19.80;99.90
24560;DHT22;12727;49.934;8.656;2022-09-13T12:51:41;20.00;99.90
24560;DHT22;12727;49.934;8.656;2022-09-13T13:05:30;20.40;99.90
24560;DHT22;12727;49.934;8.656;2022-09-13T13:08:07;20.30;99.90
24560;DHT22;12727;49.934;8.656;2022-09-13T13:10:42;20.20;99.90
24560;DHT22;12727;49.934;8.656;2022-09-13T13:13:22;20.30;99.90
24560;DHT22;12727;49.934;8.656;2022-09-13T13:26:10;20.70;99.90
24560;DHT22;12727;49.934;8.656;2022-09-13T13:33:51;20.60;99.90
24560;DHT22;12727;49.934;8.656;2022-09-13T13:36:25;20.70;99.90
24560;DHT22;12727;49.934;8.656;2022-09-13T13:38:54;20.90;99.90
24560;DHT22;12727;49.934;8.656;2022-09-13T13:46:49;21.00;99.90
24560;DHT22;12727;49.934;8.656;2022-09-13T13:55:38;20.90;99.90
24560;DHT22;12727;49.934;8.656;2022-09-13T13:58:32;20.90;99.90
24560;DHT22;12727;49.934;8.656;2022-09-13T14:01:01;20.90;99.90
24560;DHT22;12727;49.934;8.656;2022-09-13T14:04:29;21.00;99.90
24560;DHT22;12727;49.934;8.656;2022-09-13T14:09:44;20.90;99.90
24560;DHT22;12727;49.934;8.656;2022-09-13T14:12:32;20.90;99.90
24560;DHT22;12727;49.934;8.656;2022-09-13T14:21:25;20.70;99.90
24560;DHT22;12727;49.934;8.656;2022-09-13T14:26:32;20.70;99.90
24560;DHT22;12727;49.934;8.656;2022-09-13T14:28:58;20.80;99.90
24560;DHT22;12727;49.934;8.656;2022-09-13T14:31:23;20.70;99.90
24560;DHT22;12727;49.934;8.656;2022-09-13T14:33:49;20.70;99.90
24560;DHT22;12727;49.934;8.656;2022-09-13T14:36:22;20.80;99.90
24560;DHT22;12727;49.934;8.656;2022-09-13T14:38:58;20.70;99.90
24560;DHT22;12727;49.934;8.656;2022-09-13T14:41:32;20.70;99.90
24560;DHT22;12727;49.934;8.656;2022-09-13T14:44:20;20.60;99.90
24560;DHT22;12727;49.934;8.656;2022-09-13T14:46:52;20.60;99.90
24560;DHT22;12727;49.934;8.656;2022-09-13T14:49:23;20.50;99.90
24560;DHT22;12727;49.934;8.656;2022-09-13T14:51:58;20.50;99.90
24560;DHT22;12727;49.934;8.656;2022-09-13T14:57:00;20.40;99.90
24560;DHT22;12727;49.934;8.656;2022-09-13T14:59:42;20.40;99.90
24560;DHT22;12727;49.934;8.656;2022-09-13T15:02:23;20.40;99.90
24560;DHT22;12727;49.934;8.656;2022-09-13T15:04:55;20.40;99.90
24560;DHT22;12727;49.934;8.656;2022-09-13T15:07:29;20.50;99.90
24560;DHT22;12727;49.934;8.656;2022-09-13T15:10:04;20.50;99.90
24560;DHT22;12727;49.934;8.656;2022-09-13T15:12:31;20.50;99.90
24560;DHT22;12727;49.934;8.656;2022-09-13T15:20:24;20.50;99.90
24560;DHT22;12727;49.934;8.656;2022-09-13T15:22:51;20.50;99.90
24560;DHT22;12727;49.934;8.656;2022-09-13T15:25:26;20.60;99.90
24560;DHT22;12727;49.934;8.656;2022-09-13T15:27:54;20.70;99.90
24560;DHT22;12727;49.934;8.656;2022-09-13T15:35:35;20.70;99.90
24560;DHT22;12727;49.934;8.656;2022-09-13T15:38:14;20.60;99.90
24560;DHT22;12727;49.934;8.656;2022-09-13T15:40:43;20.40;99.90
24560;DHT22;12727;49.934;8.656;2022-09-13T15:43:09;20.30;99.90
24560;DHT22;12727;49.934;8.656;2022-09-13T15:45:34;20.30;99.90
24560;DHT22;12727;49.934;8.656;2022-09-13T15:48:00;20.20;99.90
24560;DHT22;12727;49.934;8.656;2022-09-13T15:50:31;20.20;99.90
24560;DHT22;12727;49.934;8.656;2022-09-13T15:52:58;20.20;99.90
24560;DHT22;12727;49.934;8.656;2022-09-13T15:55:25;20.20;99.90
24560;DHT22;12727;49.934;8.656;2022-09-13T15:57:51;20.10;99.90
24560;DHT22;12727;49.934;8.656;2022-09-13T16:00:22;20.10;99.90
24560;DHT22;12727;49.934;8.656;2022-09-13T16:02:49;20.10;99.90
24560;DHT22;12727;49.934;8.656;2022-09-13T16:05:15;20.00;99.90
24560;DHT22;12727;49.934;8.656;2022-09-13T16:07:41;20.00;99.90
24560;DHT22;12727;49.934;8.656;2022-09-13T16:10:27;20.00;99.90
24560;DHT22;12727;49.934;8.656;2022-09-13T16:12:52;20.00;99.90
24560;DHT22;12727;49.934;8.656;2022-09-13T16:15:19;20.00;99.90
24560;DHT22;12727;49.934;8.656;2022-09-13T16:17:45;20.00;99.90
24560;DHT22;12727;49.934;8.656;2022-09-13T16:20:14;20.00;99.90
24560;DHT22;12727;49.934;8.656;2022-09-13T16:22:41;20.00;99.90
24560;DHT22;12727;49.934;8.656;2022-09-13T16:25:08;20.00;99.90
24560;DHT22;12727;49.934;8.656;2022-09-13T16:27:34;20.00;99.90
24560;DHT22;12727;49.934;8.656;2022-09-13T16:30:00;20.00;99.90
24560;DHT22;12727;49.934;8.656;2022-09-13T16:32:25;20.00;99.90
24560;DHT22;12727;49.934;8.656;2022-09-13T16:34:51;19.90;99.90
24560;DHT22;12727;49.934;8.656;2022-09-13T16:37:17;19.90;99.90
24560;DHT22;12727;49.934;8.656;2022-09-13T16:39:43;19.90;99.90
24560;DHT22;12727;49.934;8.656;2022-09-13T16:42:11;19.90;99.90
24560;DHT22;12727;49.934;8.656;2022-09-13T16:44:37;19.90;99.90
24560;DHT22;12727;49.934;8.656;2022-09-13T16:47:02;19.80;99.90
24560;DHT22;12727;49.934;8.656;2022-09-13T16:49:28;19.80;99.90
24560;DHT22;12727;49.934;8.656;2022-09-13T16:51:54;19.80;99.90
24560;DHT22;12727;49.934;8.656;2022-09-13T16:54:26;19.80;99.90
24560;DHT22;12727;49.934;8.656;2022-09-13T16:56:54;19.80;99.90
24560;DHT22;12727;49.934;8.656;2022-09-13T16:59:20;19.70;99.90
24560;DHT22;12727;49.934;8.656;2022-09-13T17:01:45;19.70;99.90
24560;DHT22;12727;49.934;8.656;2022-09-13T17:04:14;19.80;99.90
24560;DHT22;12727;49.934;8.656;2022-09-13T17:06:40;19.80;99.90
24560;DHT22;12727;49.934;8.656;2022-09-13T17:09:06;19.80;99.90
24560;DHT22;12727;49.934;8.656;2022-09-13T17:11:37;19.80;99.90
24560;DHT22;12727;49.934;8.656;2022-09-13T17:14:05;19.90;99.90
24560;DHT22;12727;49.934;8.656;2022-09-13T17:16:35;19.80;99.90
24560;DHT22;12727;49.934;8.656;2022-09-13T17:19:04;19.80;99.90
24560;DHT22;12727;49.934;8.656;2022-09-13T17:21:30;19.80;99.90
24560;DHT22;12727;49.934;8.656;2022-09-13T17:23:58;19.80;99.90
24560;DHT22;12727;49.934;8.656;2022-09-13T17:26:24;19.70;99.90
24560;DHT22;12727;49.934;8.656;2022-09-13T17:28:50;19.70;99.90
24560;DHT22;12727;49.934;8.656;2022-09-13T17:31:17;19.60;99.90
24560;DHT22;12727;49.934;8.656;2022-09-13T17:33:43;19.50;99.90
24560;DHT22;12727;49.934;8.656;2022-09-13T17:36:11;19.40;99.90
24560;DHT22;12727;49.934;8.656;2022-09-13T17:38:38;19.30;99.90
24560;DHT22;12727;49.934;8.656;2022-09-13T17:41:07;19.30;99.90
24560;DHT22;12727;49.934;8.656;2022-09-13T17:43:36;19.30;99.90
24560;DHT22;12727;49.934;8.656;2022-09-13T17:46:06;19.20;99.90
24560;DHT22;12727;49.934;8.656;2022-09-13T17:48:33;19.20;99.90
24560;DHT22;12727;49.934;8.656;2022-09-13T17:51:20;19.20;99.90
24560;DHT22;12727;49.934;8.656;2022-09-13T17:53:49;19.40;99.90
24560;DHT22;12727;49.934;8.656;2022-09-13T17:56:19;19.40;99.90
24560;DHT22;12727;49.934;8.656;2022-09-13T17:58:45;19.30;99.90
24560;DHT22;12727;49.934;8.656;2022-09-13T18:01:11;19.20;99.90
24560;DHT22;12727;49.934;8.656;2022-09-13T18:03:37;19.10;99.90
24560;DHT22;12727;49.934;8.656;2022-09-13T18:06:04;19.00;99.90
24560;DHT22;12727;49.934;8.656;2022-09-13T18:08:32;18.90;99.90
24560;DHT22;12727;49.934;8.656;2022-09-13T18:11:06;18.90;99.90
24560;DHT22;12727;49.934;8.656;2022-09-13T18:13:34;18.90;99.90
24560;DHT22;12727;49.934;8.656;2022-09-13T18:16:03;18.90;99.90
24560;DHT22;12727;49.934;8.656;2022-09-13T18:18:29;18.80;99.90
24560;DHT22;12727;49.934;8.656;2022-09-13T18:20:56;18.70;99.90
24560;DHT22;12727;49.934;8.656;2022-09-13T18:23:22;18.60;99.90
24560;DHT22;12727;49.934;8.656;2022-09-13T18:26:09;18.50;99.90
24560;DHT22;12727;49.934;8.656;2022-09-13T18:28:35;18.40;99.90
24560;DHT22;12727;49.934;8.656;2022-09-13T18:31:03;18.40;99.90
24560;DHT22;12727;49.934;8.656;2022-09-13T18:33:34;18.40;99.90
24560;DHT22;12727;49.934;8.656;2022-09-13T18:38:35;18.50;99.90
24560;DHT22;12727;49.934;8.656;2022-09-13T18:41:03;18.60;99.90
24560;DHT22;12727;49.934;8.656;2022-09-13T18:43:30;18.50;99.90
24560;DHT22;12727;49.934;8.656;2022-09-13T18:46:00;18.60;99.90
24560;DHT22;12727;49.934;8.656;2022-09-13T18:48:30;18.60;99.90
24560;DHT22;12727;49.934;8.656;2022-09-13T18:50:56;18.60;99.90
24560;DHT22;12727;49.934;8.656;2022-09-13T18:53:22;18.60;99.90
24560;DHT22;12727;49.934;8.656;2022-09-13T18:55:48;18.50;99.90
24560;DHT22;12727;49.934;8.656;2022-09-13T18:58:14;18.50;99.90
24560;DHT22;12727;49.934;8.656;2022-09-13T19:00:39;18.50;99.90
24560;DHT22;12727;49.934;8.656;2022-09-13T19:03:05;18.50;99.90
24560;DHT22;12727;49.934;8.656;2022-09-13T19:05:33;18.60;99.90
24560;DHT22;12727;49.934;8.656;2022-09-13T19:07:58;18.60;99.90
24560;DHT22;12727;49.934;8.656;2022-09-13T19:10:25;18.60;99.90
24560;DHT22;12727;49.934;8.656;2022-09-13T19:12:52;18.60;99.90
24560;DHT22;12727;49.934;8.656;2022-09-13T19:15:18;18.60;99.90
24560;DHT22;12727;49.934;8.656;2022-09-13T19:17:43;18.60;99.90
24560;DHT22;12727;49.934;8.656;2022-09-13T19:20:09;18.70;99.90
24560;DHT22;12727;49.934;8.656;2022-09-13T19:22:34;18.70;99.90
24560;DHT22;12727;49.934;8.656;2022-09-13T19:25:00;18.60;99.90
24560;DHT22;12727;49.934;8.656;2022-09-13T19:27:25;18.50;99.90
24560;DHT22;12727;49.934;8.656;2022-09-13T19:29:51;18.50;99.90